createdAt,value
2022-11-29T00:01:42.058Z,19.73
2022-11-29T00:04:10.717Z,18.97
2022-11-29T00:06:39.742Z,18.20
2022-11-29T00:09:11.570Z,19.57
2022-11-29T00:11:59.057Z,18.53
2022-11-29T00:14:28.515Z,18.40
2022-11-29T00:17:02.043Z,18.43
2022-11-29T00:19:31.109Z,17.80
2022-11-29T00:21:59.340Z,18.00
2022-11-29T00:24:27.957Z,19.33
2022-11-29T00:26:56.130Z,18.17
2022-11-29T00:29:25.328Z,19.63
2022-11-29T00:31:53.573Z,20.07
2022-11-29T00:34:23.211Z,19.00
2022-11-29T00:36:51.404Z,18.33
2022-11-29T00:39:19.984Z,18.73
2022-11-29T00:41:48.158Z,19.10
2022-11-29T00:44:20.126Z,19.00
2022-11-29T00:46:49.226Z,19.60
2022-11-29T00:49:17.627Z,18.47
2022-11-29T00:51:47.528Z,19.47
2022-11-29T00:54:16.003Z,18.00
2022-11-29T00:56:44.474Z,17.70
2022-11-29T00:59:12.640Z,17.80
2022-11-29T01:01:41.008Z,16.83
2022-11-29T01:04:09.446Z,18.97
2022-11-29T01:06:37.723Z,19.63
2022-11-29T01:09:07.286Z,17.43
2022-11-29T01:11:35.448Z,19.37
2022-11-29T01:14:04.494Z,18.55
2022-11-29T01:16:34.439Z,16.93
2022-11-29T01:19:02.639Z,18.80
2022-11-29T01:21:31.418Z,18.07
2022-11-29T01:24:00.378Z,17.87
2022-11-29T01:26:31.378Z,18.17
2022-11-29T01:29:00.154Z,19.07
2022-11-29T01:31:30.267Z,19.30
2022-11-29T01:34:00.649Z,19.40
2022-11-29T01:36:29.495Z,18.57
2022-11-29T01:38:59.340Z,19.90
2022-11-29T01:41:30.737Z,19.97
2022-11-29T01:44:01.955Z,18.93
2022-11-29T01:46:32.355Z,19.80
2022-11-29T01:49:04.067Z,20.60
2022-11-29T01:51:33.792Z,19.67
2022-11-29T01:54:02.008Z,19.60
2022-11-29T01:56:33.745Z,19.90
2022-11-29T01:59:03.767Z,19.67
2022-11-29T02:01:32.568Z,20.40
2022-11-29T02:04:01.291Z,20.67
2022-11-29T02:06:30.441Z,20.87
2022-11-29T02:08:58.823Z,20.57
2022-11-29T02:11:50.648Z,20.23
2022-11-29T02:14:33.839Z,21.10
2022-11-29T02:17:08.375Z,20.67
2022-11-29T02:20:01.691Z,19.83
2022-11-29T02:22:38.396Z,21.13
2022-11-29T02:25:25.793Z,21.37
2022-11-29T02:28:30.806Z,22.60
2022-11-29T02:31:24.767Z,23.23
2022-11-29T02:34:12.035Z,19.60
2022-11-29T02:36:57.111Z,21.90
2022-11-29T02:39:51.111Z,23.90
2022-11-29T02:42:56.278Z,23.03
2022-11-29T02:45:48.192Z,21.63
2022-11-29T02:48:30.284Z,23.60
2022-11-29T02:51:07.910Z,23.77
2022-11-29T02:53:41.653Z,23.10
2022-11-29T02:56:16.485Z,22.37
2022-11-29T02:58:51.436Z,23.93
2022-11-29T03:01:26.912Z,24.40
2022-11-29T03:04:04.740Z,24.00
2022-11-29T03:06:40.804Z,24.10
2022-11-29T03:09:17.821Z,25.43
2022-11-29T03:11:52.595Z,25.07
2022-11-29T03:14:27.733Z,23.70
2022-11-29T03:17:05.036Z,24.83
2022-11-29T03:19:46.815Z,26.77
2022-11-29T03:22:27.437Z,24.50
2022-11-29T03:25:02.882Z,25.40
2022-11-29T03:27:40.199Z,26.40
2022-11-29T03:30:11.732Z,24.90
2022-11-29T03:32:46.575Z,25.77
2022-11-29T03:35:20.798Z,25.17
2022-11-29T03:37:58.856Z,24.73
2022-11-29T03:40:32.516Z,25.30
2022-11-29T03:43:05.436Z,23.70
2022-11-29T03:45:40.214Z,23.30
2022-11-29T03:48:12.682Z,23.10
2022-11-29T03:50:44.576Z,23.00
2022-11-29T03:53:21.275Z,22.50
2022-11-29T03:55:54.078Z,23.27
2022-11-29T03:58:45.428Z,23.33
2022-11-29T04:01:34.637Z,23.20
2022-11-29T04:04:39.254Z,21.93
2022-11-29T04:07:20.429Z,21.70
2022-11-29T04:10:17.281Z,22.60
2022-11-29T04:13:16.374Z,21.10
2022-11-29T04:16:20.772Z,22.90
2022-11-29T04:19:36.764Z,22.03
2022-11-29T04:22:28.763Z,22.30
2022-11-29T04:25:28.202Z,21.87
2022-11-29T04:28:29.529Z,20.63
2022-11-29T04:31:07.880Z,20.53
2022-11-29T04:34:10.199Z,21.57
2022-11-29T04:37:09.750Z,21.77
2022-11-29T04:40:03.972Z,22.50
2022-11-29T04:43:04.943Z,22.03
2022-11-29T04:45:54.771Z,21.20
2022-11-29T04:48:50.582Z,23.27
2022-11-29T04:51:29.390Z,22.57
2022-11-29T04:54:06.371Z,22.67
2022-11-29T04:56:41.693Z,22.43
2022-11-29T04:59:16.652Z,23.40
2022-11-29T05:01:59.644Z,24.03
2022-11-29T05:04:37.255Z,25.10
2022-11-29T05:07:12.913Z,24.60
2022-11-29T05:09:58.893Z,25.57
2022-11-29T05:12:34.172Z,27.23
2022-11-29T05:15:23.534Z,26.73
2022-11-29T05:17:59.796Z,24.87
2022-11-29T05:20:40.197Z,25.33
2022-11-29T05:23:26.869Z,25.20
2022-11-29T05:26:01.118Z,25.63
2022-11-29T05:28:39.287Z,25.60
2022-11-29T05:31:25.039Z,27.77
2022-11-29T05:34:30.366Z,25.77
2022-11-29T05:37:09.569Z,27.20
2022-11-29T05:39:44.401Z,27.00
2022-11-29T05:42:37.451Z,24.30
2022-11-29T05:45:12.085Z,24.97
2022-11-29T05:47:48.972Z,25.77
2022-11-29T05:50:25.655Z,24.13
2022-11-29T05:52:58.777Z,26.73
2022-11-29T05:55:40.248Z,25.23
2022-11-29T05:58:17.328Z,26.40
2022-11-29T06:00:52.742Z,25.80
2022-11-29T06:03:31.094Z,27.30
2022-11-29T06:06:08.087Z,26.60
2022-11-29T06:08:41.328Z,27.53
2022-11-29T06:11:17.028Z,27.33
2022-11-29T06:14:01.340Z,27.37
2022-11-29T06:16:56.832Z,25.20
2022-11-29T06:19:54.090Z,24.77
2022-11-29T06:22:40.376Z,23.00
2022-11-29T06:25:24.162Z,23.70
2022-11-29T06:28:08.036Z,22.30
2022-11-29T06:30:53.413Z,22.00
2022-11-29T06:33:26.100Z,20.93
2022-11-29T06:36:15.074Z,20.67
2022-11-29T06:38:45.923Z,19.90
2022-11-29T06:41:19.973Z,18.60
2022-11-29T06:43:48.966Z,21.03
2022-11-29T06:46:25.787Z,20.63
2022-11-29T06:49:02.674Z,20.53
2022-11-29T06:51:35.499Z,21.47
2022-11-29T06:54:15.089Z,20.52
2022-11-29T06:56:50.553Z,19.90
2022-11-29T06:59:33.768Z,21.53
2022-11-29T07:02:06.199Z,20.80
2022-11-29T07:04:49.686Z,18.53
2022-11-29T07:07:21.661Z,20.97
2022-11-29T07:09:54.304Z,20.40
2022-11-29T07:12:22.974Z,20.57
2022-11-29T07:14:51.762Z,20.73
2022-11-29T07:17:29.580Z,20.63
2022-11-29T07:20:09.712Z,22.43
2022-11-29T07:22:49.479Z,19.23
2022-11-29T07:25:28.878Z,20.63
2022-11-29T07:28:06.240Z,20.90
2022-11-29T07:30:43.637Z,19.57
2022-11-29T07:33:19.914Z,19.03
2022-11-29T07:35:56.694Z,19.90
2022-11-29T07:38:45.494Z,19.57
2022-11-29T07:41:22.025Z,18.30
2022-11-29T07:43:57.640Z,18.40
2022-11-29T07:46:26.051Z,20.10
2022-11-29T07:48:54.538Z,20.40
2022-11-29T07:51:22.822Z,21.90
2022-11-29T07:53:51.010Z,22.23
2022-11-29T07:56:20.487Z,21.30
2022-11-29T07:58:51.763Z,20.00
2022-11-29T08:01:20.039Z,20.37
2022-11-29T08:03:48.182Z,20.33
2022-11-29T08:06:16.325Z,21.47
2022-11-29T08:08:44.550Z,21.10
2022-11-29T08:11:14.006Z,22.13
2022-11-29T08:13:43.646Z,25.50
2022-11-29T08:16:17.829Z,24.97
2022-11-29T08:18:46.611Z,25.90
2022-11-29T08:21:18.084Z,23.00
2022-11-29T08:23:46.711Z,23.07
2022-11-29T08:26:16.004Z,22.63
2022-11-29T08:28:46.164Z,23.23
2022-11-29T08:31:14.909Z,23.00
2022-11-29T08:33:44.672Z,25.00
2022-11-29T08:36:15.036Z,21.23
2022-11-29T08:38:46.496Z,24.30
2022-11-29T08:41:16.329Z,22.07
2022-11-29T08:43:46.368Z,21.70
2022-11-29T08:46:18.493Z,23.37
2022-11-29T08:48:47.144Z,23.50
2022-11-29T08:51:16.079Z,23.40
2022-11-29T08:53:43.486Z,22.40
2022-11-29T08:56:59.718Z,22.80
2022-11-29T08:59:02.993Z,23.13
2022-11-29T09:01:31.295Z,22.80
2022-11-29T09:04:03.552Z,21.87
2022-11-29T09:06:34.056Z,21.53
2022-11-29T09:09:02.452Z,21.30
2022-11-29T09:11:33.376Z,21.80
2022-11-29T09:14:04.878Z,21.17
2022-11-29T09:16:36.206Z,21.30
2022-11-29T09:19:04.580Z,20.70
2022-11-29T09:21:36.672Z,19.93
2022-11-29T09:24:07.040Z,20.43
2022-11-29T09:26:37.883Z,19.77
2022-11-29T09:29:11.925Z,18.40
2022-11-29T09:31:40.150Z,17.77
2022-11-29T09:34:08.618Z,18.20
2022-11-29T09:36:37.164Z,18.27
2022-11-29T09:39:05.842Z,18.43
2022-11-29T09:41:48.885Z,18.00
2022-11-29T09:44:30.156Z,19.93
2022-11-29T09:47:05.440Z,21.07
2022-11-29T09:49:57.354Z,20.40
2022-11-29T09:52:37.737Z,20.77
2022-11-29T09:55:24.417Z,20.53
2022-11-29T09:57:54.864Z,20.47
2022-11-29T10:00:24.556Z,20.23
2022-11-29T10:02:59.061Z,20.90
2022-11-29T10:05:31.092Z,20.13
2022-11-29T10:08:03.194Z,20.23
2022-11-29T10:10:40.475Z,21.10
2022-11-29T10:13:18.484Z,21.00
2022-11-29T10:15:51.516Z,22.10
2022-11-29T10:18:23.904Z,21.03
2022-11-29T10:20:58.466Z,21.57
2022-11-29T10:23:34.091Z,21.30
2022-11-29T10:26:07.409Z,21.93
2022-11-29T10:28:38.095Z,23.27
2022-11-29T10:31:20.248Z,22.47
2022-11-29T10:33:49.187Z,21.57
2022-11-29T10:36:27.018Z,19.60
2022-11-29T10:39:00.318Z,20.10
2022-11-29T10:41:28.511Z,20.07
2022-11-29T10:43:58.841Z,21.23
2022-11-29T10:46:32.494Z,19.33
2022-11-29T10:49:03.853Z,19.67
2022-11-29T10:51:34.227Z,20.27
2022-11-29T10:54:21.602Z,21.87
2022-11-29T10:56:50.753Z,21.37
2022-11-29T10:59:24.611Z,21.10
2022-11-29T11:01:54.358Z,21.23
2022-11-29T11:04:31.473Z,22.80
2022-11-29T11:07:02.360Z,22.55
2022-11-29T11:09:35.327Z,22.30
2022-11-29T11:12:07.010Z,22.53
2022-11-29T11:14:38.713Z,23.50
2022-11-29T11:17:22.761Z,22.77
2022-11-29T11:19:57.994Z,21.50
2022-11-29T11:22:27.720Z,22.37
2022-11-29T11:25:01.466Z,21.87
2022-11-29T11:27:32.100Z,21.60
2022-11-29T11:30:01.443Z,22.70
2022-11-29T11:32:31.318Z,22.40
2022-11-29T11:35:01.043Z,21.30
2022-11-29T11:37:30.447Z,22.83
2022-11-29T11:40:00.709Z,20.47
2022-11-29T11:42:42.663Z,22.33
2022-11-29T11:45:28.411Z,20.23
2022-11-29T11:48:00.445Z,20.63
2022-11-29T11:50:31.765Z,22.40
2022-11-29T11:53:04.872Z,22.77
2022-11-29T11:55:40.731Z,23.00
2022-11-29T11:58:18.624Z,25.33
2022-11-29T12:01:05.704Z,24.00
2022-11-29T12:03:45.945Z,24.60
2022-11-29T12:06:40.642Z,26.40
2022-11-29T12:09:18.603Z,24.00
2022-11-29T12:11:55.229Z,25.17
2022-11-29T12:14:32.146Z,26.90
2022-11-29T12:17:09.090Z,25.93
2022-11-29T12:19:47.579Z,27.50
2022-11-29T12:22:21.111Z,26.87
2022-11-29T12:24:56.588Z,26.60
2022-11-29T12:27:24.945Z,30.07
2022-11-29T12:29:53.294Z,28.50
2022-11-29T12:32:56.093Z,27.13
2022-11-29T12:35:45.781Z,28.53
2022-11-29T12:38:34.649Z,28.27
2022-11-29T12:41:12.761Z,30.20
2022-11-29T12:43:54.884Z,29.47
2022-11-29T12:46:26.383Z,28.00
2022-11-29T12:49:05.363Z,28.90
2022-11-29T12:51:56.608Z,30.20
2022-11-29T12:54:36.653Z,30.33
2022-11-29T12:57:12.106Z,30.43
2022-11-29T12:59:57.519Z,28.93
2022-11-29T13:02:35.773Z,28.10
2022-11-29T13:05:17.197Z,28.03
2022-11-29T13:08:00.289Z,28.77
2022-11-29T13:10:42.342Z,29.63
2022-11-29T13:13:20.199Z,27.77
2022-11-29T13:15:54.792Z,30.27
2022-11-29T13:18:27.501Z,29.70
2022-11-29T13:21:02.637Z,31.40
2022-11-29T13:24:07.415Z,30.27
2022-11-29T13:26:30.556Z,28.77
2022-11-29T13:28:59.539Z,30.77
2022-11-29T13:31:27.923Z,29.30
2022-11-29T13:34:02.771Z,29.90
2022-11-29T13:36:43.969Z,27.90
2022-11-29T13:39:24.963Z,28.27
2022-11-29T13:42:05.717Z,27.83
2022-11-29T13:44:38.191Z,27.37
2022-11-29T13:47:09.847Z,28.60
2022-11-29T13:49:55.423Z,28.57
2022-11-29T13:52:40.288Z,27.70
2022-11-29T13:55:23.494Z,27.10
2022-11-29T14:00:51.683Z,24.53
2022-11-29T14:03:39.553Z,24.53
2022-11-29T14:06:18.517Z,24.30
2022-11-29T14:09:19.092Z,26.10
2022-11-29T14:11:52.453Z,24.93
2022-11-29T14:14:27.034Z,27.27
2022-11-29T14:16:58.873Z,27.27
2022-11-29T14:19:33.348Z,26.77
2022-11-29T14:22:23.308Z,25.97
2022-11-29T14:25:50.466Z,27.70
2022-11-29T14:28:33.203Z,25.60
2022-11-29T14:31:02.719Z,26.63
2022-11-29T14:33:52.070Z,27.27
2022-11-29T14:36:40.148Z,25.07
2022-11-29T14:39:27.622Z,24.80
2022-11-29T14:42:06.201Z,26.37
2022-11-29T14:44:44.466Z,26.37
2022-11-29T14:47:32.288Z,25.57
2022-11-29T14:50:06.556Z,25.20
2022-11-29T14:52:38.937Z,25.07
2022-11-29T14:55:10.731Z,27.17
2022-11-29T14:58:15.752Z,26.80
2022-11-29T15:00:56.655Z,27.07
2022-11-29T15:03:32.993Z,26.13
2022-11-29T15:06:08.687Z,26.63
2022-11-29T15:08:42.500Z,26.67
2022-11-29T15:11:17.333Z,26.57
2022-11-29T15:13:55.776Z,26.47
2022-11-29T15:16:46.111Z,27.13
2022-11-29T15:19:41.832Z,25.60
2022-11-29T15:22:16.729Z,26.43
2022-11-29T15:24:53.871Z,27.07
2022-11-29T15:27:22.779Z,25.90
2022-11-29T15:29:52.394Z,26.30
2022-11-29T15:32:30.396Z,26.07
2022-11-29T15:34:59.529Z,27.93
2022-11-29T15:37:42.747Z,26.43
2022-11-29T15:40:16.015Z,27.30
2022-11-29T15:42:47.195Z,25.40
2022-11-29T15:45:26.914Z,25.97
2022-11-29T15:47:57.072Z,26.27
2022-11-29T15:50:26.840Z,23.03
2022-11-29T15:53:00.454Z,24.33
2022-11-29T15:55:29.201Z,24.20
2022-11-29T15:58:03.979Z,23.87
2022-11-29T16:00:37.022Z,22.47
2022-11-29T16:03:07.734Z,23.43
2022-11-29T16:05:38.285Z,23.43
2022-11-29T16:08:09.177Z,23.27
2022-11-29T16:10:44.060Z,24.00
2022-11-29T16:13:34.583Z,23.07
2022-11-29T16:16:22.022Z,23.70
2022-11-29T16:18:52.171Z,23.50
2022-11-29T16:21:26.344Z,21.17
2022-11-29T16:23:55.124Z,23.07
2022-11-29T16:26:28.374Z,22.97
2022-11-29T16:28:57.906Z,22.40
2022-11-29T16:31:32.818Z,20.43
2022-11-29T16:34:08.897Z,20.97
2022-11-29T16:36:37.610Z,20.90
2022-11-29T16:39:08.872Z,21.43
2022-11-29T16:41:39.427Z,21.03
2022-11-29T16:44:23.692Z,21.10
2022-11-29T16:47:11.331Z,20.70
2022-11-29T16:49:40.941Z,20.50
2022-11-29T16:52:25.599Z,20.07
2022-11-29T16:54:53.896Z,20.40
2022-11-29T16:57:22.796Z,21.43
2022-11-29T16:59:51.630Z,20.03
2022-11-29T17:02:20.080Z,21.47
2022-11-29T17:04:51.588Z,22.23
2022-11-29T17:07:24.768Z,20.23
2022-11-29T17:09:53.768Z,21.47
2022-11-29T17:12:22.278Z,22.93
2022-11-29T17:14:50.479Z,21.90
2022-11-29T17:17:20.705Z,22.60
2022-11-29T17:19:50.242Z,22.00
2022-11-29T17:22:18.408Z,21.77
2022-11-29T17:24:48.589Z,20.00
2022-11-29T17:27:17.169Z,20.63
2022-11-29T17:29:45.392Z,19.73
2022-11-29T17:32:13.853Z,20.03
2022-11-29T17:34:42.914Z,19.73
2022-11-29T17:37:12.594Z,20.60
2022-11-29T17:39:44.750Z,20.30
2022-11-29T17:42:13.214Z,20.20
2022-11-29T17:44:41.456Z,20.37
2022-11-29T17:47:09.569Z,21.23
2022-11-29T17:49:37.832Z,20.77
2022-11-29T17:52:06.292Z,19.97
2022-11-29T17:54:36.083Z,21.17
2022-11-29T17:57:04.773Z,21.47
2022-11-29T17:59:32.995Z,20.13
2022-11-29T18:02:04.291Z,20.37
2022-11-29T18:04:32.452Z,20.50
2022-11-29T18:07:01.529Z,21.70
2022-11-29T18:09:29.715Z,21.10
2022-11-29T18:11:59.347Z,19.40
2022-11-29T18:14:29.161Z,19.70
2022-11-29T18:16:57.537Z,21.02
2022-11-29T18:19:25.745Z,19.00
2022-11-29T18:21:54.039Z,19.83
2022-11-29T18:24:23.421Z,20.20
2022-11-29T18:26:51.664Z,19.70
2022-11-29T18:29:24.188Z,20.77
2022-11-29T18:31:52.348Z,19.50
2022-11-29T18:34:20.670Z,21.93
2022-11-29T18:36:50.181Z,20.90
2022-11-29T18:39:20.828Z,20.43
2022-11-29T18:41:50.357Z,20.23
2022-11-29T18:44:21.570Z,21.73
2022-11-29T18:46:51.341Z,20.33
2022-11-29T18:49:19.812Z,21.00
2022-11-29T18:51:49.580Z,20.80
2022-11-29T18:54:19.442Z,21.77
2022-11-29T18:56:50.548Z,20.70
2022-11-29T18:59:18.945Z,20.60
2022-11-29T19:01:48.652Z,22.17
2022-11-29T19:04:20.731Z,22.63
2022-11-29T19:06:49.551Z,22.13
2022-11-29T19:09:21.027Z,21.97
2022-11-29T19:11:50.109Z,22.00
2022-11-29T19:14:18.851Z,21.27
2022-11-29T19:16:49.427Z,22.63
2022-11-29T19:19:19.932Z,22.70
2022-11-29T19:21:48.347Z,20.27
2022-11-29T19:24:18.199Z,22.90
2022-11-29T19:26:50.032Z,21.30
2022-11-29T19:29:18.762Z,22.67
2022-11-29T19:31:47.005Z,22.97
2022-11-29T19:34:15.309Z,21.80
2022-11-29T19:36:45.549Z,22.77
2022-11-29T19:39:15.522Z,24.23
2022-11-29T19:41:45.200Z,22.70
2022-11-29T19:44:14.061Z,23.20
2022-11-29T19:46:45.712Z,23.90
2022-11-29T19:49:13.937Z,22.90
2022-11-29T19:51:42.380Z,23.97
2022-11-29T19:54:12.378Z,23.40
2022-11-29T19:56:43.796Z,23.43
2022-11-29T19:59:12.337Z,21.93
2022-11-29T20:01:42.721Z,22.23
2022-11-29T20:04:13.366Z,22.50
2022-11-29T20:06:42.121Z,20.40
2022-11-29T20:09:13.426Z,22.20
2022-11-29T20:11:41.784Z,22.80
2022-11-29T20:14:12.370Z,22.20
2022-11-29T20:16:40.544Z,22.53
2022-11-29T20:19:10.860Z,23.03
2022-11-29T20:21:42.456Z,22.33
2022-11-29T20:24:13.050Z,23.30
2022-11-29T20:26:42.308Z,21.60
2022-11-29T20:29:11.663Z,20.10
2022-11-29T20:31:45.981Z,21.53
2022-11-29T20:34:17.915Z,22.10
2022-11-29T20:37:02.331Z,21.50
2022-11-29T20:39:41.323Z,22.00
2022-11-29T20:42:32.543Z,21.45
2022-11-29T20:45:02.367Z,22.17
2022-11-29T20:47:51.931Z,21.73
2022-11-29T20:50:23.826Z,23.67
2022-11-29T20:53:14.252Z,22.50
2022-11-29T20:55:48.025Z,21.87
2022-11-29T20:58:16.871Z,23.67
2022-11-29T21:00:45.064Z,22.50
2022-11-29T21:03:14.698Z,22.33
2022-11-29T21:05:42.958Z,21.73
2022-11-29T21:08:11.213Z,24.90
2022-11-29T21:10:39.334Z,23.40
2022-11-29T21:13:13.570Z,23.87
2022-11-29T21:15:42.679Z,24.50
2022-11-29T21:18:21.641Z,23.03
2022-11-29T21:20:57.298Z,25.60
2022-11-29T21:23:34.990Z,24.37
2022-11-29T21:26:09.115Z,24.23
2022-11-29T21:28:47.221Z,22.90
2022-11-29T21:31:17.671Z,23.70
2022-11-29T21:33:46.441Z,24.60
2022-11-29T21:36:14.871Z,25.43
2022-11-29T21:38:43.172Z,26.03
2022-11-29T21:41:11.342Z,24.27
2022-11-29T21:44:05.608Z,24.17
2022-11-29T21:46:29.534Z,25.30
2022-11-29T21:48:57.732Z,26.50
2022-11-29T21:51:25.885Z,28.17
2022-11-29T21:53:54.104Z,28.27
2022-11-29T21:56:22.256Z,28.90
2022-11-29T21:58:51.877Z,26.60
2022-11-29T22:01:21.686Z,26.00
2022-11-29T22:03:52.962Z,26.10
2022-11-29T22:06:24.058Z,24.40
2022-11-29T22:08:52.233Z,26.17
2022-11-29T22:11:30.930Z,25.77
2022-11-29T22:14:18.368Z,25.43
2022-11-29T22:16:48.660Z,25.60
2022-11-29T22:19:19.016Z,27.50
2022-11-29T22:21:48.993Z,27.47
2022-11-29T22:24:19.091Z,27.27
2022-11-29T22:26:48.323Z,26.47
2022-11-29T22:29:18.308Z,25.00
2022-11-29T22:31:48.542Z,25.20
2022-11-29T22:34:16.885Z,25.87
2022-11-29T22:36:45.124Z,25.93
2022-11-29T22:39:14.202Z,25.23
2022-11-29T22:41:42.901Z,23.00
2022-11-29T22:44:11.076Z,24.90
2022-11-29T22:46:41.550Z,27.05
2022-11-29T22:49:10.557Z,24.20
2022-11-29T22:51:39.392Z,25.70
2022-11-29T22:54:09.105Z,24.73
2022-11-29T22:56:39.032Z,25.77
2022-11-29T22:59:10.423Z,24.07
2022-11-29T23:01:41.118Z,26.23
2022-11-29T23:04:11.069Z,26.70
2022-11-29T23:06:41.367Z,24.83
2022-11-29T23:09:15.223Z,26.43
2022-11-29T23:11:45.055Z,25.50
2022-11-29T23:14:13.907Z,26.07
2022-11-29T23:16:44.435Z,26.27
2022-11-29T23:19:12.718Z,27.17
2022-11-29T23:21:42.077Z,25.67
2022-11-29T23:24:10.571Z,28.03
2022-11-29T23:26:40.842Z,27.83
2022-11-29T23:29:11.694Z,28.30
2022-11-29T23:31:40.394Z,28.67
2022-11-29T23:34:10.293Z,28.87
2022-11-29T23:36:38.461Z,29.47
2022-11-29T23:39:07.463Z,29.83
2022-11-29T23:41:35.695Z,30.90
2022-11-29T23:44:04.632Z,30.97
2022-11-29T23:46:32.972Z,32.20
2022-11-29T23:49:01.141Z,29.80
2022-11-29T23:51:30.901Z,29.10
2022-11-29T23:53:59.813Z,29.00
2022-11-29T23:56:28.015Z,29.90
2022-11-29T23:58:56.214Z,29.80
